Time;durP1;ratioP1;P1;durP2;ratioP2;P2;SDS_P1;SDS_P2;PMS_P1;PMS_P2;Temp;Humidity;BMP_temperature;BMP_pressure;BME280_temperature;BME280_humidity;BME280_pressure;Samples;Min_cycle;Max_cycle;Signal;HPM_P1;HPM_P2
2023/10/18 00:00:35;;;;;;;6.75;4.75;;;2.90;99.90;;;;;;5038879;28;20022;-56
2023/10/18 00:03:02;;;;;;;7.22;4.18;;;2.90;99.90;;;;;;5018105;28;20025;-57
2023/10/18 00:05:28;;;;;;;5.70;4.78;;;2.90;99.90;;;;;;5026032;28;20121;-55
2023/10/18 00:07:57;;;;;;;6.50;4.75;;;2.90;99.90;;;;;;5042119;28;20035;-57
2023/10/18 00:10:23;;;;;;;5.50;4.45;;;2.90;99.90;;;;;;5025437;28;20050;-59
2023/10/18 00:12:52;;;;;;;8.30;4.47;;;2.90;99.90;;;;;;5028416;28;20024;-57
2023/10/18 00:15:18;;;;;;;5.80;4.68;;;2.90;99.90;;;;;;5008086;28;20025;-55
2023/10/18 00:17:44;;;;;;;5.75;4.65;;;2.90;99.90;;;;;;5026048;28;20070;-56
2023/10/18 00:20:16;;;;;;;7.45;5.35;;;2.90;99.90;;;;;;5025866;28;20029;-58
2023/10/18 00:22:43;;;;;;;7.13;4.57;;;2.80;99.90;;;;;;5025904;28;20021;-57
2023/10/18 00:25:10;;;;;;;6.43;4.97;;;2.90;99.90;;;;;;5025936;28;20034;-57
2023/10/18 00:27:41;;;;;;;7.35;5.03;;;2.90;99.90;;;;;;5025906;28;20110;-57
2023/10/18 00:30:07;;;;;;;7.85;5.20;;;2.80;99.90;;;;;;5025627;28;20127;-54
2023/10/18 00:32:36;;;;;;;7.68;5.13;;;2.90;99.90;;;;;;5025681;28;20025;-58
2023/10/18 00:35:20;;;;;;;5.55;4.93;;;2.90;99.90;;;;;;5026114;28;20021;-57
2023/10/18 00:37:48;;;;;;;6.88;5.40;;;2.90;99.90;;;;;;5006506;28;20028;-54
2023/10/18 00:43:20;;;;;;;6.53;5.05;;;2.90;99.90;;;;;;5025566;28;20030;-58
2023/10/18 00:45:53;;;;;;;9.88;4.93;;;2.90;99.90;;;;;;5022995;28;20531;-56
2023/10/18 00:48:20;;;;;;;6.93;4.70;;;2.90;99.90;;;;;;5025650;28;20058;-57
2023/10/18 00:50:48;;;;;;;12.07;4.63;;;2.80;99.90;;;;;;5029924;28;20064;-56
2023/10/18 00:53:22;;;;;;;5.82;4.72;;;2.80;99.90;;;;;;5034492;28;20026;-53
2023/10/18 00:55:53;;;;;;;6.47;4.68;;;2.80;99.90;;;;;;5033490;28;20025;-57
2023/10/18 00:58:21;;;;;;;5.10;4.60;;;2.80;99.90;;;;;;5019485;28;20489;-58
2023/10/18 01:00:48;;;;;;;6.15;4.30;;;2.80;99.90;;;;;;5034488;28;20040;-58
2023/10/18 01:03:30;;;;;;;6.10;4.78;;;2.80;99.90;;;;;;5034797;28;20021;-57
2023/10/18 01:06:07;;;;;;;8.45;4.97;;;2.70;99.90;;;;;;5040706;28;20366;-55
2023/10/18 01:08:35;;;;;;;;;;;2.70;99.90;;;;;;5041170;28;20115;-56
2023/10/18 01:11:06;;;;;;;6.10;4.13;;;2.70;99.90;;;;;;5024112;28;19908;-56
2023/10/18 01:13:37;;;;;;;5.90;4.20;;;2.70;99.90;;;;;;5020007;28;20389;-57
2023/10/18 01:16:14;;;;;;;6.82;4.25;;;2.70;99.90;;;;;;5024142;28;20021;-54
2023/10/18 01:18:43;;;;;;;7.55;4.70;;;2.70;99.90;;;;;;5044356;28;20104;-59
2023/10/18 01:21:19;;;;;;;6.95;4.55;;;2.60;99.90;;;;;;5041562;28;20067;-55
2023/10/18 01:23:53;;;;;;;5.95;4.28;;;2.60;99.90;;;;;;5041374;28;20104;-56
2023/10/18 01:26:21;;;;;;;6.32;4.43;;;2.60;99.90;;;;;;5022220;28;20041;-56
2023/10/18 01:28:47;;;;;;;6.40;4.78;;;2.60;99.90;;;;;;5041573;28;20029;-53
2023/10/18 01:31:13;;;;;;;10.05;4.80;;;2.60;99.90;;;;;;5040027;28;20036;-55
2023/10/18 01:33:43;;;;;;;8.23;4.35;;;2.60;99.90;;;;;;5042799;28;20022;-57
2023/10/18 01:36:15;;;;;;;8.07;4.30;;;2.60;99.90;;;;;;5043143;28;20017;-55
2023/10/18 01:38:42;;;;;;;5.78;4.28;;;2.60;99.90;;;;;;5039865;28;20021;-59
2023/10/18 01:41:09;;;;;;;6.68;4.75;;;2.50;99.90;;;;;;5041647;28;20471;-53
2023/10/18 01:43:38;;;;;;;8.43;4.50;;;2.50;99.90;;;;;;5023036;28;20021;-57
2023/10/18 01:46:13;;;;;;;7.70;5.00;;;2.50;99.90;;;;;;5037019;28;20017;-55
2023/10/18 01:48:39;;;;;;;5.13;4.32;;;2.50;99.90;;;;;;5035114;28;20041;-54
2023/10/18 01:51:06;;;;;;;5.80;4.82;;;2.50;99.90;;;;;;5043414;28;20060;-57
2023/10/18 01:53:34;;;;;;;8.38;5.13;;;2.40;99.90;;;;;;5042089;28;20504;-56
2023/10/18 01:56:01;;;;;;;6.85;4.97;;;2.40;99.90;;;;;;5040808;28;20034;-55
2023/10/18 01:58:28;;;;;;;5.03;4.30;;;2.40;99.90;;;;;;5041601;28;20017;-57
2023/10/18 02:00:56;;;;;;;6.53;4.75;;;2.40;99.90;;;;;;5041124;28;20025;-55
2023/10/18 02:03:23;;;;;;;7.55;4.80;;;2.40;99.90;;;;;;5043258;28;20078;-56
2023/10/18 02:05:49;;;;;;;5.95;4.70;;;2.40;99.90;;;;;;5045290;28;20100;-58
2023/10/18 02:08:15;;;;;;;4.72;4.10;;;2.40;99.90;;;;;;5044944;28;20151;-56
2023/10/18 02:10:42;;;;;;;8.70;4.68;;;2.40;99.90;;;;;;5044761;28;20064;-53
2023/10/18 02:13:11;;;;;;;5.63;5.00;;;2.30;99.90;;;;;;5037665;28;20041;-55
2023/10/18 02:15:39;;;;;;;8.80;5.15;;;2.30;99.90;;;;;;5039974;28;20056;-55
2023/10/18 02:18:08;;;;;;;7.22;4.30;;;2.30;99.90;;;;;;5039721;28;20115;-53
2023/10/18 02:20:58;;;;;;;5.05;4.55;;;2.30;99.90;;;;;;5040523;28;20022;-57
2023/10/18 02:23:23;;;;;;;4.60;3.97;;;2.40;99.90;;;;;;5041818;28;20033;-57
2023/10/18 02:25:49;;;;;;;5.90;5.03;;;2.30;99.90;;;;;;5040275;28;20026;-59
2023/10/18 02:28:23;;;;;;;5.70;4.53;;;2.30;99.90;;;;;;5038709;28;20512;-57
2023/10/18 02:30:57;;;;;;;5.80;4.35;;;2.30;99.90;;;;;;5039782;28;20021;-57
2023/10/18 02:36:32;;;;;;;7.38;4.32;;;2.20;99.90;;;;;;5015869;28;20591;-57
2023/10/18 02:38:59;;;;;;;7.03;4.43;;;2.20;99.90;;;;;;5044451;28;20021;-58
2023/10/18 02:41:28;;;;;;;5.43;4.50;;;2.20;99.90;;;;;;5037571;28;20444;-55
2023/10/18 02:43:54;;;;;;;5.53;4.47;;;2.20;99.90;;;;;;5043659;28;20087;-56
2023/10/18 02:46:24;;;;;;;5.47;4.43;;;2.20;99.90;;;;;;5034994;28;20032;-57
2023/10/18 02:48:52;;;;;;;5.28;4.18;;;2.10;99.90;;;;;;5033627;28;20124;-53
2023/10/18 02:51:24;;;;;;;6.03;4.40;;;2.10;99.90;;;;;;5035768;28;20654;-58
2023/10/18 02:53:53;;;;;;;4.90;4.20;;;2.10;99.90;;;;;;5035417;28;20644;-56
2023/10/18 02:56:27;;;;;;;5.40;4.53;;;2.20;99.90;;;;;;5040518;28;20597;-56
2023/10/18 02:58:55;;;;;;;6.93;4.45;;;2.20;99.90;;;;;;5039394;28;20033;-58
2023/10/18 03:01:22;;;;;;;5.93;4.63;;;2.20;99.90;;;;;;5040237;28;20032;-54
2023/10/18 03:03:52;;;;;;;5.30;4.70;;;2.20;99.90;;;;;;5021473;28;20025;-56
2023/10/18 03:06:19;;;;;;;7.03;4.88;;;2.20;99.90;;;;;;5039678;28;20123;-55
2023/10/18 03:08:48;;;;;;;8.65;4.88;;;2.20;99.90;;;;;;5041740;28;20021;-57
2023/10/18 03:11:14;;;;;;;6.18;4.80;;;2.20;99.90;;;;;;5039738;28;20439;-57
2023/10/18 03:13:39;;;;;;;7.07;4.57;;;2.20;99.90;;;;;;5040818;28;20017;-55
2023/10/18 03:16:06;;;;;;;7.22;4.63;;;2.20;99.90;;;;;;5041712;28;20052;-57
2023/10/18 03:18:34;;;;;;;7.07;4.90;;;2.20;99.90;;;;;;5041553;28;20493;-57
2023/10/18 03:21:05;;;;;;;5.43;4.53;;;2.20;99.90;;;;;;5034653;28;20570;-55
2023/10/18 03:23:31;;;;;;;6.00;4.32;;;2.20;99.90;;;;;;5043058;28;20435;-54
2023/10/18 03:25:59;;;;;;;5.75;4.50;;;2.10;99.90;;;;;;5041249;28;20557;-55
2023/10/18 03:28:25;;;;;;;8.05;5.03;;;2.10;99.90;;;;;;5042333;28;20017;-58
2023/10/18 03:30:50;;;;;;;6.47;4.25;;;2.10;99.90;;;;;;5037648;28;20183;-56
2023/10/18 03:33:16;;;;;;;7.03;4.05;;;2.10;99.90;;;;;;5043627;28;20540;-55
2023/10/18 03:35:43;;;;;;;7.50;4.97;;;2.00;99.90;;;;;;5022789;28;20628;-56
2023/10/18 03:38:21;;;;;;;5.13;4.35;;;2.00;99.90;;;;;;5042043;28;20074;-55
2023/10/18 03:41:07;;;;;;;6.55;5.25;;;2.00;99.90;;;;;;5036428;28;20018;-58
2023/10/18 03:43:36;;;;;;;4.45;4.05;;;2.00;99.90;;;;;;5040629;28;20032;-53
2023/10/18 03:46:14;;;;;;;3.88;3.55;;;2.00;99.90;;;;;;5032267;28;20105;-56
2023/10/18 03:48:40;;;;;;;5.70;4.28;;;2.00;99.90;;;;;;5033616;28;20119;-57
2023/10/18 03:51:07;;;;;;;5.40;4.47;;;2.00;99.90;;;;;;5040736;28;20497;-56
2023/10/18 03:53:33;;;;;;;5.70;4.15;;;2.00;99.90;;;;;;5019144;28;20021;-55
2023/10/18 03:55:59;;;;;;;7.53;4.45;;;2.00;99.90;;;;;;5035120;28;20024;-57
2023/10/18 03:58:26;;;;;;;5.00;4.03;;;2.00;99.90;;;;;;5039058;28;20021;-56
2023/10/18 04:00:54;;;;;;;7.57;4.82;;;2.00;99.90;;;;;;5041376;28;20064;-55
2023/10/18 04:03:20;;;;;;;6.45;4.30;;;2.00;99.90;;;;;;5039937;28;20025;-56
2023/10/18 04:05:49;;;;;;;5.63;4.13;;;2.00;99.90;;;;;;5040085;28;20030;-55
2023/10/18 04:08:15;;;;;;;5.97;4.63;;;2.00;99.90;;;;;;5023527;28;20033;-54
2023/10/18 04:10:42;;;;;;;9.27;5.65;;;1.90;99.90;;;;;;5038942;28;20119;-56
2023/10/18 04:13:14;;;;;;;5.03;4.20;;;1.90;99.90;;;;;;5041812;28;20844;-52
2023/10/18 04:15:57;;;;;;;5.72;4.47;;;1.90;99.90;;;;;;5037852;28;20457;-54
2023/10/18 04:18:26;;;;;;;5.25;4.38;;;1.90;99.90;;;;;;5022362;28;20120;-53
2023/10/18 04:20:58;;;;;;;6.15;4.45;;;1.90;99.90;;;;;;5020678;28;20075;-54
2023/10/18 04:23:27;;;;;;;6.00;4.57;;;1.90;99.90;;;;;;5042259;28;20028;-54
2023/10/18 04:26:03;;;;;;;6.90;5.28;;;1.90;99.90;;;;;;5037884;28;20032;-54
2023/10/18 04:28:31;;;;;;;7.40;4.70;;;1.80;99.90;;;;;;5038505;28;20017;-55
2023/10/18 04:31:00;;;;;;;5.95;4.82;;;1.80;99.90;;;;;;5032814;28;19913;-54
2023/10/18 04:33:35;;;;;;;7.30;4.53;;;1.90;99.90;;;;;;5035275;28;20021;-56
2023/10/18 04:36:14;;;;;;;6.68;4.82;;;1.80;99.90;;;;;;5030655;28;20036;-57
2023/10/18 04:38:47;;;;;;;7.38;4.80;;;1.80;99.90;;;;;;5038522;28;20029;-55
2023/10/18 04:44:40;;;;;;;6.75;5.28;;;1.90;99.90;;;;;;5039054;28;20033;-54
2023/10/18 04:46:43;;;;;;;10.40;4.20;;;1.90;99.90;;;;;;5023923;28;20032;-55
2023/10/18 04:54:09;;;;;;;7.28;5.25;;;1.90;99.90;;;;;;5034358;28;20056;-52
2023/10/18 04:56:38;;;;;;;8.88;4.55;;;2.00;99.90;;;;;;5036865;28;20481;-54
2023/10/18 04:59:27;;;;;;;5.07;4.30;;;1.90;99.90;;;;;;5036024;28;20504;-55
2023/10/18 05:04:20;;;;;;;8.77;4.43;;;2.00;99.90;;;;;;5041354;28;20036;-50
2023/10/18 05:06:56;;;;;;;6.50;4.55;;;2.00;99.90;;;;;;5042447;28;20018;-52
2023/10/18 05:09:30;;;;;;;5.72;4.40;;;2.00;99.90;;;;;;5040460;28;20025;-55
2023/10/18 05:15:09;;;;;;;6.63;4.57;;;2.00;99.90;;;;;;5042080;28;20086;-55
2023/10/18 05:17:49;;;;;;;6.25;4.45;;;2.00;99.90;;;;;;5039874;28;20203;-56
2023/10/18 05:22:45;;;;;;;5.47;4.20;;;2.00;99.90;;;;;;5041730;28;20017;-55
2023/10/18 05:27:45;;;;;;;6.05;4.50;;;2.00;99.90;;;;;;5043264;28;20113;-54
2023/10/18 05:30:15;;;;;;;5.22;4.18;;;2.00;99.90;;;;;;5044817;28;20039;-56
2023/10/18 05:32:49;;;;;;;10.80;4.95;;;1.90;99.90;;;;;;5044102;28;20280;-52
2023/10/18 05:35:22;;;;;;;5.32;4.13;;;1.90;99.90;;;;;;5046163;28;20032;-55
2023/10/18 05:37:58;;;;;;;5.97;3.78;;;1.90;99.90;;;;;;5041191;28;20025;-54
2023/10/18 05:43:52;;;;;;;6.65;4.45;;;1.90;99.90;;;;;;5040504;28;20446;-56
2023/10/18 05:46:03;;;;;;;8.32;4.43;;;1.80;99.90;;;;;;5032447;28;20382;-51
2023/10/18 05:48:32;;;;;;;5.20;3.92;;;1.80;99.90;;;;;;5038014;28;20096;-53
2023/10/18 05:53:43;;;;;;;6.45;4.10;;;1.80;99.90;;;;;;5038541;28;20058;-55
2023/10/18 05:56:08;;;;;;;5.18;3.90;;;1.80;99.90;;;;;;5042255;28;20446;-54
2023/10/18 05:58:34;;;;;;;6.70;4.18;;;1.70;99.90;;;;;;5039635;28;20500;-55
2023/10/18 06:01:02;;;;;;;5.80;4.07;;;1.70;99.90;;;;;;5044566;28;20033;-51
2023/10/18 06:03:41;;;;;;;5.50;4.03;;;1.70;99.90;;;;;;5044615;28;20083;-54
2023/10/18 06:06:07;;;;;;;6.07;4.45;;;1.70;99.90;;;;;;5023102;28;20029;-50
2023/10/18 06:08:34;;;;;;;5.05;4.22;;;1.70;99.90;;;;;;5044178;28;20505;-53
2023/10/18 06:11:09;;;;;;;5.95;4.90;;;1.70;99.90;;;;;;5036799;28;20265;-56
2023/10/18 06:13:36;;;;;;;5.70;4.60;;;1.70;99.90;;;;;;5045705;28;20018;-55
2023/10/18 06:16:19;;;;;;;21.02;8.00;;;1.80;99.90;;;;;;5045242;28;20033;-53
2023/10/18 06:18:46;;;;;;;16.75;9.50;;;1.80;99.90;;;;;;5044680;28;20024;-56
2023/10/18 06:21:18;;;;;;;18.88;11.15;;;1.80;99.90;;;;;;5045292;28;20048;-51
2023/10/18 06:23:56;;;;;;;16.65;11.02;;;1.90;99.90;;;;;;5046572;28;20064;-56
2023/10/18 06:26:28;;;;;;;20.38;11.82;;;1.90;99.90;;;;;;5044996;28;20129;-55
2023/10/18 06:29:11;;;;;;;17.63;10.32;;;2.00;99.90;;;;;;5042641;28;20026;-55
2023/10/18 06:31:40;;;;;;;14.55;9.45;;;2.00;99.90;;;;;;5044226;28;20037;-55
2023/10/18 06:34:10;;;;;;;11.65;7.55;;;2.00;99.90;;;;;;5044116;28;20078;-56
2023/10/18 06:36:39;;;;;;;9.27;6.10;;;2.10;99.90;;;;;;5042712;28;20439;-52
2023/10/18 06:39:05;;;;;;;9.15;6.70;;;2.10;99.90;;;;;;5043922;28;20091;-50
2023/10/18 06:41:31;;;;;;;10.25;6.70;;;2.20;99.90;;;;;;5045102;28;20093;-52
2023/10/18 06:43:59;;;;;;;9.40;6.40;;;2.20;99.90;;;;;;5043977;28;20028;-54
2023/10/18 06:46:30;;;;;;;11.77;7.47;;;2.30;99.90;;;;;;5042002;28;20032;-54
2023/10/18 06:48:59;;;;;;;8.70;6.20;;;2.30;99.90;;;;;;5036674;28;20040;-53
2023/10/18 06:51:31;;;;;;;9.35;6.72;;;2.30;99.90;;;;;;5034259;28;20033;-53
2023/10/18 06:53:59;;;;;;;10.48;5.70;;;2.30;99.90;;;;;;5032823;28;20100;-54
2023/10/18 06:56:26;;;;;;;11.30;4.75;;;2.40;99.90;;;;;;5029973;28;20030;-54
2023/10/18 06:58:53;;;;;;;5.82;4.15;;;2.40;99.90;;;;;;5035772;28;20562;-51
2023/10/18 07:01:26;;;;;;;7.47;4.85;;;2.50;99.90;;;;;;5035376;28;20041;-55
2023/10/18 07:03:51;;;;;;;5.78;3.80;;;2.50;99.90;;;;;;5032939;28;20311;-51
2023/10/18 07:06:24;;;;;;;5.65;3.97;;;2.50;99.90;;;;;;5035029;28;20075;-55
2023/10/18 07:08:50;;;;;;;7.22;3.80;;;2.60;99.90;;;;;;5037341;28;20025;-51
2023/10/18 07:11:19;;;;;;;5.30;3.75;;;2.70;99.90;;;;;;5035876;28;20025;-55
2023/10/18 07:13:46;;;;;;;4.97;3.45;;;2.70;99.90;;;;;;5019723;28;20021;-52
2023/10/18 07:19:23;;;;;;;5.53;3.25;;;2.90;99.90;;;;;;5034804;28;20494;-54
2023/10/18 07:21:49;;;;;;;6.32;4.05;;;2.90;99.90;;;;;;5034026;28;20029;-53
2023/10/18 07:24:17;;;;;;;4.28;3.00;;;3.00;99.90;;;;;;5037003;28;20087;-50
2023/10/18 07:26:43;;;;;;;5.00;3.63;;;3.00;99.90;;;;;;5032196;28;20099;-51
2023/10/18 07:29:08;;;;;;;4.95;3.47;;;3.00;99.90;;;;;;5013269;28;20478;-51
2023/10/18 07:31:42;;;;;;;5.00;3.63;;;3.10;99.90;;;;;;5033550;28;20056;-55
2023/10/18 07:34:08;;;;;;;3.47;3.17;;;3.20;99.90;;;;;;5034426;28;20473;-51
2023/10/18 07:36:44;;;;;;;5.72;3.53;;;3.20;99.90;;;;;;5038382;28;20078;-53
2023/10/18 07:39:11;;;;;;;5.70;3.63;;;3.30;99.90;;;;;;5015947;28;20029;-51
2023/10/18 07:41:37;;;;;;;4.85;3.70;;;3.30;99.90;;;;;;5037740;28;20033;-50
2023/10/18 07:44:05;;;;;;;6.50;3.72;;;3.30;99.90;;;;;;5031405;28;20033;-54
2023/10/18 07:46:39;;;;;;;6.00;3.60;;;3.40;99.90;;;;;;5036381;28;20125;-53
2023/10/18 07:49:11;;;;;;;4.18;3.60;;;3.50;99.90;;;;;;5029157;28;20363;-51
2023/10/18 07:51:55;;;;;;;4.97;3.83;;;3.50;99.90;;;;;;5033385;28;20029;-54
2023/10/18 07:54:22;;;;;;;5.15;3.67;;;3.60;99.90;;;;;;5030614;28;20061;-53
2023/10/18 07:56:48;;;;;;;7.03;4.03;;;3.70;99.90;;;;;;5032472;28;20094;-53
2023/10/18 07:59:30;;;;;;;5.85;3.75;;;3.80;99.90;;;;;;5031221;28;20060;-52
2023/10/18 08:02:12;;;;;;;6.13;4.18;;;3.90;99.90;;;;;;4993499;28;1074788;-50
2023/10/18 08:04:40;;;;;;;6.32;3.75;;;3.90;99.90;;;;;;5034781;28;20025;-51
2023/10/18 08:07:15;;;;;;;5.03;3.95;;;4.00;99.90;;;;;;5033720;28;20085;-52
2023/10/18 08:09:41;;;;;;;5.22;4.07;;;4.10;99.90;;;;;;5039151;28;20032;-57
2023/10/18 08:12:08;;;;;;;6.28;4.35;;;4.20;99.90;;;;;;5035457;28;20036;-56
2023/10/18 08:14:35;;;;;;;5.25;4.20;;;4.20;99.90;;;;;;5037029;28;20056;-53
2023/10/18 08:17:29;;;;;;;5.13;4.22;;;4.30;99.90;;;;;;5031579;28;20033;-53
2023/10/18 08:20:30;;;;;;;6.90;4.13;;;4.40;99.90;;;;;;5035287;28;20064;-51
2023/10/18 08:22:44;;;;;;;5.53;4.18;;;4.60;99.90;;;;;;5035637;28;20424;-51
2023/10/18 08:25:21;;;;;;;5.18;4.68;;;4.60;99.90;;;;;;5038306;28;20036;-52
2023/10/18 08:27:48;;;;;;;6.95;4.47;;;4.70;99.90;;;;;;5032844;28;20029;-53
2023/10/18 08:30:23;;;;;;;5.07;4.25;;;4.90;99.90;;;;;;5016804;28;20026;-56
2023/10/18 08:32:51;;;;;;;6.90;4.70;;;5.00;99.90;;;;;;5035775;28;20044;-56
2023/10/18 08:35:19;;;;;;;7.90;4.53;;;5.10;99.90;;;;;;5037627;28;20330;-55
2023/10/18 08:37:45;;;;;;;4.80;3.78;;;5.20;99.90;;;;;;5034682;28;20025;-55
2023/10/18 08:43:06;;;;;;;4.80;3.75;;;5.40;99.90;;;;;;5035536;28;20036;-58
2023/10/18 08:45:36;;;;;;;6.60;4.38;;;5.50;99.90;;;;;;5033612;28;20058;-55
2023/10/18 08:48:11;;;;;;;5.18;4.13;;;5.60;99.90;;;;;;5033567;28;20112;-54
2023/10/18 08:50:41;;;;;;;5.32;4.07;;;5.60;99.90;;;;;;5035935;28;20025;-57
2023/10/18 08:53:07;;;;;;;6.80;3.95;;;5.70;99.90;;;;;;5011201;28;20056;-56
2023/10/18 08:55:45;;;;;;;6.68;4.00;;;5.80;99.90;;;;;;5034719;28;20021;-56
2023/10/18 08:58:22;;;;;;;5.05;3.50;;;6.00;99.90;;;;;;5034596;28;20596;-56
2023/10/18 09:03:27;;;;;;;5.32;3.38;;;6.10;99.90;;;;;;5031884;28;20033;-57
2023/10/18 09:06:09;;;;;;;4.03;3.33;;;6.20;99.90;;;;;;5036141;28;20523;-56
2023/10/18 09:08:42;;;;;;;3.17;2.85;;;6.30;99.90;;;;;;5039106;28;20524;-56
2023/10/18 09:11:27;;;;;;;4.78;3.25;;;6.40;99.90;;;;;;5015845;28;20018;-56
2023/10/18 09:14:08;;;;;;;4.88;3.10;;;6.50;99.90;;;;;;5020643;28;20017;-56
2023/10/18 09:16:41;;;;;;;3.42;3.00;;;6.60;99.90;;;;;;5036057;28;20080;-57
2023/10/18 09:19:09;;;;;;;3.70;2.38;;;6.60;99.90;;;;;;5032731;28;20036;-55
2023/10/18 09:21:36;;;;;;;4.28;2.95;;;6.80;99.90;;;;;;5039981;28;20021;-58
2023/10/18 09:24:03;;;;;;;3.25;2.38;;;6.90;99.90;;;;;;5037826;28;20029;-58
2023/10/18 09:26:44;;;;;;;4.28;2.58;;;6.90;99.90;;;;;;5038049;28;20028;-57
2023/10/18 09:29:10;;;;;;;3.17;2.40;;;7.00;99.90;;;;;;5035918;28;20101;-56
2023/10/18 09:31:50;;;;;;;2.40;2.20;;;7.10;99.90;;;;;;5019035;28;20407;-54
2023/10/18 09:34:16;;;;;;;2.83;2.00;;;7.20;99.90;;;;;;5018342;28;20635;-58
2023/10/18 09:36:54;;;;;;;3.67;2.20;;;7.20;99.90;;;;;;5038138;28;20587;-57
2023/10/18 09:39:21;;;;;;;4.13;1.92;;;7.30;99.90;;;;;;5039141;28;20117;-55
2023/10/18 09:41:47;;;;;;;3.13;2.35;;;7.40;99.90;;;;;;5038419;28;20100;-58
2023/10/18 09:44:13;;;;;;;3.20;1.80;;;7.50;99.90;;;;;;5036645;28;20502;-56
2023/10/18 09:46:39;;;;;;;5.43;1.90;;;7.60;99.90;;;;;;5037879;28;20390;-57
2023/10/18 09:49:09;;;;;;;2.78;1.40;;;7.70;99.90;;;;;;5013516;28;20029;-54
2023/10/18 09:51:36;;;;;;;3.17;1.80;;;7.80;99.90;;;;;;5034368;28;20025;-59
2023/10/18 09:54:07;;;;;;;1.20;1.10;;;7.90;99.90;;;;;;5032902;28;20074;-58
2023/10/18 09:56:34;;;;;;;1.73;1.63;;;7.90;99.90;;;;;;5033253;28;20032;-58
2023/10/18 09:59:08;;;;;;;2.90;1.27;;;8.00;99.90;;;;;;5030907;28;20147;-58
2023/10/18 10:04:17;;;;;;;3.72;1.45;;;8.10;99.90;;;;;;5033702;28;20567;-57
2023/10/18 10:06:55;;;;;;;2.75;1.55;;;8.10;99.90;;;;;;5039911;28;20108;-56
2023/10/18 10:09:38;;;;;;;3.08;1.70;;;8.20;99.90;;;;;;5040745;28;20021;-59
2023/10/18 10:12:10;;;;;;;3.33;1.55;;;8.20;99.90;;;;;;5039987;28;20035;-58
2023/10/18 10:14:37;;;;;;;2.15;1.20;;;8.30;99.90;;;;;;5043750;28;20025;-57
2023/10/18 10:17:17;;;;;;;3.17;1.20;;;8.40;99.90;;;;;;5038991;28;20475;-58
2023/10/18 10:19:47;;;;;;;4.25;1.30;;;8.50;99.90;;;;;;5037789;28;20029;-56
2023/10/18 10:22:15;;;;;;;3.03;1.00;;;8.50;99.90;;;;;;5038764;28;20644;-58
2023/10/18 10:24:43;;;;;;;1.85;0.93;;;8.60;99.90;;;;;;5040086;28;20037;-55
2023/10/18 10:27:27;;;;;;;1.63;1.48;;;8.60;99.90;;;;;;5041271;28;20025;-57
2023/10/18 10:29:57;;;;;;;1.33;1.23;;;8.70;99.90;;;;;;5042452;28;20058;-56
2023/10/18 10:32:28;;;;;;;2.95;1.15;;;8.70;99.90;;;;;;5039463;28;20063;-57
2023/10/18 10:35:27;;;;;;;1.02;1.00;;;8.70;99.90;;;;;;5041963;28;20117;-57
2023/10/18 10:38:18;;;;;;;3.65;1.50;;;8.70;99.90;;;;;;5027313;28;20056;-58
2023/10/18 10:41:04;;;;;;;1.67;1.20;;;8.80;99.90;;;;;;5045640;28;20028;-58
2023/10/18 10:44:10;;;;;;;2.25;1.05;;;8.80;99.90;;;;;;5041917;28;20895;-56
2023/10/18 10:46:37;;;;;;;3.75;1.20;;;8.90;99.90;;;;;;5040658;28;20025;-56
2023/10/18 10:49:28;;;;;;;2.30;1.25;;;9.00;99.90;;;;;;5017085;28;20424;-56
2023/10/18 10:51:56;;;;;;;1.40;1.20;;;9.00;99.90;;;;;;5041099;28;20480;-57
2023/10/18 10:54:26;;;;;;;1.77;1.20;;;9.00;99.90;;;;;;5034338;28;20026;-58
2023/10/18 10:56:54;;;;;;;2.03;1.30;;;9.10;99.90;;;;;;5042064;28;20097;-57
2023/10/18 10:59:22;;;;;;;2.42;1.33;;;9.10;99.90;;;;;;5037420;28;20087;-58
2023/10/18 11:04:27;;;;;;;2.35;1.10;;;9.20;99.90;;;;;;5038358;28;20071;-56
2023/10/18 11:06:57;;;;;;;3.45;1.50;;;9.20;99.90;;;;;;5043860;28;20104;-56
2023/10/18 11:09:34;;;;;;;3.05;1.40;;;9.20;99.90;;;;;;5044074;28;20052;-56
2023/10/18 11:12:04;;;;;;;2.38;1.08;;;9.20;99.90;;;;;;5042136;28;20438;-59
2023/10/18 11:14:30;;;;;;;3.03;1.20;;;9.20;99.90;;;;;;5040407;28;20013;-59
2023/10/18 11:19:53;;;;;;;1.75;1.25;;;9.30;99.90;;;;;;5043586;28;20025;-58
2023/10/18 11:22:23;;;;;;;3.15;1.25;;;9.30;99.90;;;;;;5042359;28;20231;-58
2023/10/18 11:24:55;;;;;;;1.38;1.20;;;9.30;99.90;;;;;;5043161;28;20013;-59
2023/10/18 11:27:33;;;;;;;2.35;1.23;;;9.40;99.90;;;;;;5042439;28;20076;-60
2023/10/18 11:30:45;;;;;;;4.25;1.38;;;9.40;99.90;;;;;;5044247;28;20086;-57
2023/10/18 11:32:50;;;;;;;1.05;1.00;;;9.40;99.90;;;;;;5026761;28;20029;-57
2023/10/18 11:35:42;;;;;;;3.53;1.60;;;9.50;99.90;;;;;;5043235;28;20028;-53
2023/10/18 11:38:11;;;;;;;3.10;1.13;;;9.40;99.90;;;;;;5022554;28;20079;-57
2023/10/18 11:40:48;;;;;;;1.30;1.17;;;9.50;99.90;;;;;;5045417;28;20031;-57
2023/10/18 11:43:21;;;;;;;1.75;1.20;;;9.50;99.90;;;;;;5040932;28;20025;-57
2023/10/18 11:45:48;;;;;;;1.92;1.02;;;9.60;99.90;;;;;;5039303;28;20390;-57
2023/10/18 11:48:14;;;;;;;2.92;1.13;;;9.60;99.90;;;;;;5032907;28;20021;-57
2023/10/18 11:50:47;;;;;;;4.45;1.30;;;9.60;99.90;;;;;;5023158;28;20032;-56
2023/10/18 11:53:14;;;;;;;1.20;1.10;;;9.60;99.90;;;;;;5032434;28;20025;-58
2023/10/18 11:56:11;;;;;;;2.03;1.27;;;9.60;99.90;;;;;;5036667;28;20009;-57
2023/10/18 11:58:40;;;;;;;1.48;1.23;;;9.70;99.90;;;;;;4999505;28;20443;-60
2023/10/18 12:01:19;;;;;;;2.78;1.27;;;9.70;99.90;;;;;;5036235;28;20045;-59
2023/10/18 12:03:48;;;;;;;1.73;1.20;;;9.60;99.90;;;;;;5040187;28;20024;-58
2023/10/18 12:06:13;;;;;;;2.40;1.30;;;9.70;99.90;;;;;;5038209;28;20367;-58
2023/10/18 12:09:09;;;;;;;1.77;0.88;;;9.70;99.90;;;;;;5040314;28;20040;-56
2023/10/18 12:11:34;;;;;;;1.38;1.27;;;9.70;99.90;;;;;;5034869;28;20580;-58
2023/10/18 12:14:00;;;;;;;1.38;1.23;;;9.70;99.90;;;;;;5024191;28;20308;-58
2023/10/18 12:16:26;;;;;;;1.52;1.38;;;9.70;99.90;;;;;;5035443;28;20599;-57
2023/10/18 12:18:52;;;;;;;5.20;1.80;;;9.70;99.90;;;;;;5040854;28;20034;-56
2023/10/18 12:21:20;;;;;;;2.30;1.48;;;9.80;99.90;;;;;;5035809;28;20500;-57
2023/10/18 12:23:46;;;;;;;4.57;1.35;;;9.80;99.90;;;;;;5041305;28;20009;-57
2023/10/18 12:26:12;;;;;;;2.67;1.65;;;9.80;99.90;;;;;;5036547;28;20484;-56
2023/10/18 12:28:38;;;;;;;2.22;1.23;;;9.90;99.90;;;;;;5041628;28;20061;-59
2023/10/18 12:31:12;;;;;;;1.50;1.15;;;9.90;99.90;;;;;;5037596;28;20036;-57
2023/10/18 12:33:40;;;;;;;3.67;1.75;;;9.90;99.90;;;;;;5041496;28;20817;-57
2023/10/18 12:36:09;;;;;;;1.83;1.30;;;9.90;99.90;;;;;;5036503;28;20021;-53
2023/10/18 12:38:38;;;;;;;2.42;1.65;;;10.00;99.90;;;;;;5022943;28;20508;-57
2023/10/18 12:43:45;;;;;;;3.45;2.08;;;10.00;99.90;;;;;;5039938;28;20029;-57
2023/10/18 12:46:15;;;;;;;3.50;1.70;;;10.00;99.90;;;;;;5016247;28;20036;-55
2023/10/18 12:48:42;;;;;;;2.17;1.52;;;10.00;99.90;;;;;;5033716;28;20121;-58
2023/10/18 12:51:09;;;;;;;3.30;1.88;;;10.10;99.90;;;;;;5035567;28;20083;-57
2023/10/18 12:53:39;;;;;;;2.42;1.45;;;10.10;99.90;;;;;;5035033;28;20022;-58
2023/10/18 12:56:31;;;;;;;4.75;1.52;;;10.10;99.90;;;;;;5037117;28;20108;-58
2023/10/18 12:58:58;;;;;;;2.47;1.40;;;10.20;99.90;;;;;;5036070;28;20012;-56
2023/10/18 13:01:32;;;;;;;3.38;1.30;;;10.20;99.90;;;;;;5034222;28;20098;-55
2023/10/18 13:04:06;;;;;;;2.25;1.40;;;10.20;99.90;;;;;;5019688;28;20446;-57
2023/10/18 13:06:35;;;;;;;2.95;1.80;;;10.30;99.90;;;;;;5039208;28;20116;-57
2023/10/18 13:09:15;;;;;;;2.00;1.38;;;10.30;99.90;;;;;;5041679;28;20017;-53
2023/10/18 13:14:24;;;;;;;3.67;1.60;;;10.30;99.90;;;;;;5042697;28;20029;-58
2023/10/18 13:16:53;;;;;;;2.25;1.60;;;10.30;99.90;;;;;;5035441;28;20030;-58
2023/10/18 13:19:19;;;;;;;3.67;1.70;;;10.30;99.90;;;;;;5041517;28;20028;-55
2023/10/18 13:21:47;;;;;;;9.90;5.15;;;10.30;99.90;;;;;;5040104;28;20021;-58
2023/10/18 13:26:51;;;;;;;1.80;1.08;;;10.30;99.90;;;;;;5038753;28;20086;-58
2023/10/18 13:31:47;;;;;;;3.10;1.67;;;10.40;99.90;;;;;;5042427;28;20053;-57
2023/10/18 13:34:18;;;;;;;5.60;2.60;;;10.40;99.90;;;;;;5040495;28;20378;-57
2023/10/18 13:36:50;;;;;;;2.70;1.80;;;10.40;99.90;;;;;;5038297;28;20138;-58
2023/10/18 13:39:17;;;;;;;1.80;1.40;;;10.40;99.90;;;;;;5042913;28;20116;-58
2023/10/18 13:41:52;;;;;;;4.40;1.20;;;10.40;99.90;;;;;;5039313;28;20032;-59
2023/10/18 13:44:21;;;;;;;2.13;1.13;;;10.40;99.90;;;;;;5041598;28;20032;-57
2023/10/18 13:46:47;;;;;;;1.27;1.05;;;10.40;99.90;;;;;;5042530;28;20407;-58
2023/10/18 13:49:13;;;;;;;2.28;1.35;;;10.30;99.90;;;;;;5040789;28;20033;-55
2023/10/18 13:51:41;;;;;;;2.67;1.23;;;10.40;99.90;;;;;;5039291;28;20044;-55
2023/10/18 13:54:07;;;;;;;3.08;1.60;;;10.40;99.90;;;;;;5019106;28;20385;-57
2023/10/18 13:56:34;;;;;;;2.30;1.40;;;10.40;99.90;;;;;;5040508;28;20021;-57
2023/10/18 13:59:01;;;;;;;3.67;1.90;;;10.40;99.90;;;;;;5016467;28;20021;-58
2023/10/18 14:01:28;;;;;;;1.95;1.58;;;10.40;99.90;;;;;;5038415;28;20755;-56
2023/10/18 14:03:54;;;;;;;3.28;1.10;;;10.40;99.90;;;;;;5044359;28;20020;-59
2023/10/18 14:06:20;;;;;;;2.78;1.10;;;10.40;99.90;;;;;;5042318;28;20560;-58
2023/10/18 14:08:47;;;;;;;4.18;1.38;;;10.40;99.90;;;;;;5046332;28;20076;-58
2023/10/18 14:11:14;;;;;;;1.67;1.20;;;10.40;99.90;;;;;;5043275;28;20040;-57